Time;durP1;ratioP1;P1;durP2;ratioP2;P2;SDS_P1;SDS_P2;PMS_P1;PMS_P2;Temp;Humidity;BMP_temperature;BMP_pressure;BME280_temperature;BME280_humidity;BME280_pressure;Samples;Min_cycle;Max_cycle;Signal;HPM_P1;HPM_P2
2023/05/11 00:01:28;;;;;;;56.97;51.67;;;;;;;;;;5018730;28;20497;-84
2023/05/11 00:03:56;;;;;;;60.80;54.23;;;;;;;;;;5019072;28;20420;-85
2023/05/11 00:06:23;;;;;;;58.40;52.50;;;;;;;;;;5018559;28;20457;-85
2023/05/11 00:08:50;;;;;;;57.20;52.10;;;;;;;;;;5018773;28;20507;-85
2023/05/11 00:11:18;;;;;;;55.23;50.10;;;;;;;;;;5018156;28;20475;-85
2023/05/11 00:13:45;;;;;;;54.70;49.70;;;;;;;;;;5018948;28;20457;-84
2023/05/11 00:16:13;;;;;;;56.37;50.97;;;;;;;;;;5017629;28;20430;-85
2023/05/11 00:18:40;;;;;;;54.83;49.20;;;;;;;;;;5017527;28;20445;-84
2023/05/11 00:21:08;;;;;;;57.13;51.60;;;;;;;;;;5018002;28;20546;-85
2023/05/11 00:23:35;;;;;;;56.17;50.90;;;;;;;;;;5018139;28;20487;-84
2023/05/11 00:26:02;;;;;;;54.73;49.40;;;;;;;;;;5016487;28;20460;-85
2023/05/11 00:28:29;;;;;;;54.23;48.90;;;;;;;;;;5017412;28;20859;-84
2023/05/11 00:30:57;;;;;;;51.60;46.70;;;;;;;;;;5017121;28;20468;-85
2023/05/11 00:33:24;;;;;;;56.87;50.77;;;;;;;;;;5017438;28;20407;-85
2023/05/11 00:35:51;;;;;;;51.70;46.77;;;;;;;;;;5016772;28;20496;-85
2023/05/11 00:38:20;;;;;;;53.90;48.40;;;;;;;;;;5016910;28;20443;-85
2023/05/11 00:40:47;;;;;;;53.07;47.70;;;;;;;;;;5016445;28;20479;-85
2023/05/11 00:43:14;;;;;;;52.80;47.20;;;;;;;;;;5016709;28;20456;-85
2023/05/11 00:45:41;;;;;;;54.80;48.17;;;;;;;;;;5016537;28;20458;-85
2023/05/11 00:48:08;;;;;;;53.30;47.70;;;;;;;;;;5017169;28;20479;-84
2023/05/11 00:50:35;;;;;;;55.60;49.63;;;;;;;;;;5016029;28;20523;-84
2023/05/11 00:53:03;;;;;;;53.10;47.60;;;;;;;;;;5016664;28;20502;-84
2023/05/11 00:55:31;;;;;;;51.77;46.47;;;;;;;;;;5016953;28;20900;-85
2023/05/11 00:57:59;;;;;;;48.53;43.87;;;;;;;;;;5016805;28;20448;-85
2023/05/11 01:00:26;;;;;;;50.27;45.10;;;;;;;;;;5016376;28;20492;-85
2023/05/11 01:02:53;;;;;;;45.63;41.63;;;;;;;;;;5016597;28;20856;-83
2023/05/11 01:05:20;;;;;;;48.00;43.30;;;;;;;;;;5016865;28;20479;-84
2023/05/11 01:07:50;;;;;;;49.63;44.63;;;;;;;;;;5015914;28;20810;-83
2023/05/11 01:10:21;;;;;;;47.90;43.83;;;;;;;;;;5016429;28;20443;-83
2023/05/11 01:12:55;;;;;;;49.10;44.30;;;;;;;;;;5016002;28;20450;-85
2023/05/11 01:15:25;;;;;;;48.50;44.07;;;;;;;;;;5022162;28;20419;-85
2023/05/11 01:17:56;;;;;;;50.13;44.93;;;;;;;;;;5020968;28;20411;-85
2023/05/11 01:20:26;;;;;;;50.07;45.20;;;;;;;;;;5019833;28;20608;-85
2023/05/11 01:23:07;;;;;;;50.80;45.90;;;;;;;;;;5015734;28;20522;-83
2023/05/11 01:25:49;;;;;;;47.43;42.83;;;;;;;;;;5013897;28;20512;-84
2023/05/11 01:28:23;;;;;;;49.37;44.80;;;;;;;;;;5015742;28;20489;-84
2023/05/11 01:30:52;;;;;;;48.87;44.30;;;;;;;;;;5015143;28;20832;-84
2023/05/11 01:33:22;;;;;;;51.57;46.00;;;;;;;;;;5015154;28;20440;-84
2023/05/11 01:35:52;;;;;;;46.30;41.90;;;;;;;;;;5014700;28;20477;-84
2023/05/11 01:38:20;;;;;;;48.80;43.97;;;;;;;;;;5014872;28;20866;-84
2023/05/11 01:40:50;;;;;;;50.50;45.30;;;;;;;;;;5014086;28;20972;-84
2023/05/11 01:43:19;;;;;;;52.40;47.03;;;;;;;;;;5018718;28;20423;-84
2023/05/11 01:45:48;;;;;;;50.40;45.50;;;;;;;;;;5020613;28;20438;-84
2023/05/11 01:48:17;;;;;;;50.07;45.50;;;;;;;;;;5024368;28;20450;-84
2023/05/11 01:50:44;;;;;;;50.27;45.37;;;;;;;;;;5021224;28;20486;-84
2023/05/11 01:53:12;;;;;;;54.07;48.87;;;;;;;;;;5020957;28;20828;-83
2023/05/11 01:55:41;;;;;;;49.20;44.23;;;;;;;;;;5020094;28;20411;-84
2023/05/11 01:58:09;;;;;;;47.77;43.03;;;;;;;;;;5023029;28;21006;-83
2023/05/11 02:00:36;;;;;;;47.67;42.70;;;;;;;;;;5022856;28;20459;-84
2023/05/11 02:03:06;;;;;;;49.30;44.83;;;;;;;;;;5017796;28;20441;-84
2023/05/11 02:05:35;;;;;;;47.90;42.27;;;;;;;;;;5014245;28;20861;-85
2023/05/11 02:08:03;;;;;;;51.77;46.57;;;;;;;;;;5014517;28;20431;-84
2023/05/11 02:10:31;;;;;;;47.57;42.70;;;;;;;;;;5014955;28;20506;-84
2023/05/11 02:12:59;;;;;;;50.87;45.33;;;;;;;;;;5014951;28;20567;-84
2023/05/11 02:15:26;;;;;;;49.10;44.00;;;;;;;;;;5014859;28;20435;-84
2023/05/11 02:17:54;;;;;;;47.07;42.20;;;;;;;;;;5013262;28;20446;-84
2023/05/11 02:20:21;;;;;;;49.73;44.50;;;;;;;;;;5013832;28;20555;-84
2023/05/11 02:22:50;;;;;;;51.30;46.17;;;;;;;;;;5013814;28;20457;-84
2023/05/11 02:25:17;;;;;;;48.90;44.13;;;;;;;;;;5016093;28;20516;-84
2023/05/11 02:27:45;;;;;;;50.40;45.60;;;;;;;;;;5013833;28;20448;-84
2023/05/11 02:30:12;;;;;;;47.93;43.23;;;;;;;;;;5014537;28;20561;-84
2023/05/11 02:32:42;;;;;;;50.60;45.40;;;;;;;;;;5015018;28;20522;-84
2023/05/11 02:35:11;;;;;;;49.50;44.03;;;;;;;;;;5014974;28;20499;-84
2023/05/11 02:37:42;;;;;;;48.17;43.23;;;;;;;;;;5014111;28;20437;-83
2023/05/11 02:40:14;;;;;;;51.63;46.30;;;;;;;;;;5013784;28;20484;-84
2023/05/11 02:42:45;;;;;;;49.80;44.03;;;;;;;;;;5022796;28;20421;-84
2023/05/11 02:45:16;;;;;;;47.30;42.10;;;;;;;;;;5040730;28;20419;-83
2023/05/11 02:47:46;;;;;;;50.50;44.40;;;;;;;;;;5036857;28;20451;-84
2023/05/11 02:50:15;;;;;;;49.30;43.43;;;;;;;;;;5168037;22;20468;-84
2023/05/11 02:52:45;;;;;;;49.90;44.70;;;;;;;;;;5060642;28;20451;-85
2023/05/11 02:55:16;;;;;;;49.70;44.60;;;;;;;;;;5060637;28;20529;-85
2023/05/11 02:57:44;;;;;;;49.30;42.90;;;;;;;;;;5059695;28;20419;-83
2023/05/11 03:00:12;;;;;;;50.43;43.93;;;;;;;;;;5059781;28;20454;-85
2023/05/11 03:02:40;;;;;;;48.37;43.77;;;;;;;;;;5059627;28;20438;-84
2023/05/11 03:05:08;;;;;;;46.77;41.70;;;;;;;;;;5058468;28;20418;-84
2023/05/11 03:07:36;;;;;;;48.93;43.80;;;;;;;;;;5049186;28;20416;-84
2023/05/11 03:10:04;;;;;;;46.30;41.97;;;;;;;;;;5041228;28;20537;-83
2023/05/11 03:12:34;;;;;;;55.10;43.50;;;;;;;;;;5037509;28;20511;-84
2023/05/11 03:15:01;;;;;;;48.60;44.03;;;;;;;;;;5037807;28;20462;-83
2023/05/11 03:17:29;;;;;;;47.17;42.57;;;;;;;;;;5038596;28;20455;-85
2023/05/11 03:19:57;;;;;;;48.50;43.70;;;;;;;;;;5037647;28;20442;-85
2023/05/11 03:22:24;;;;;;;49.23;42.73;;;;;;;;;;5038109;28;20418;-85
2023/05/11 03:24:52;;;;;;;49.90;44.70;;;;;;;;;;5037760;28;20426;-85
2023/05/11 03:27:19;;;;;;;47.27;42.47;;;;;;;;;;5037504;28;20426;-84
2023/05/11 03:29:48;;;;;;;51.47;46.37;;;;;;;;;;5039393;28;20536;-85
2023/05/11 03:32:15;;;;;;;49.37;44.80;;;;;;;;;;5038911;28;20426;-86
2023/05/11 03:34:42;;;;;;;53.57;47.93;;;;;;;;;;5040052;28;20468;-85
2023/05/11 03:37:11;;;;;;;49.83;45.03;;;;;;;;;;5039024;28;20455;-85
2023/05/11 03:39:39;;;;;;;52.93;47.63;;;;;;;;;;5038783;28;20510;-85
2023/05/11 03:42:07;;;;;;;51.80;47.00;;;;;;;;;;5038198;28;20477;-85
2023/05/11 03:44:34;;;;;;;50.07;45.13;;;;;;;;;;5036867;28;20419;-85
2023/05/11 03:47:04;;;;;;;48.57;44.10;;;;;;;;;;5036716;28;20803;-85
2023/05/11 03:49:31;;;;;;;51.37;46.53;;;;;;;;;;5037610;28;20469;-85
2023/05/11 03:51:58;;;;;;;51.73;46.13;;;;;;;;;;5039454;28;20449;-85
2023/05/11 03:54:25;;;;;;;50.77;45.30;;;;;;;;;;5042078;28;20448;-85
2023/05/11 03:56:52;;;;;;;48.40;43.23;;;;;;;;;;5042625;28;20517;-84
2023/05/11 03:59:20;;;;;;;48.90;44.00;;;;;;;;;;5042726;28;20442;-85
2023/05/11 04:01:50;;;;;;;48.33;43.43;;;;;;;;;;5042974;28;20434;-85
2023/05/11 04:04:18;;;;;;;49.40;44.20;;;;;;;;;;5040795;28;20463;-85
2023/05/11 04:06:45;;;;;;;48.27;43.17;;;;;;;;;;5037753;28;20500;-85
2023/05/11 04:09:12;;;;;;;51.13;45.70;;;;;;;;;;5037326;28;20495;-84
2023/05/11 04:11:39;;;;;;;47.57;42.73;;;;;;;;;;5038304;28;20422;-85
2023/05/11 04:14:06;;;;;;;48.37;43.37;;;;;;;;;;5038354;28;20462;-85
2023/05/11 04:16:34;;;;;;;50.00;44.67;;;;;;;;;;5038035;28;21045;-86
2023/05/11 04:19:01;;;;;;;54.17;46.73;;;;;;;;;;5041583;28;20467;-85
2023/05/11 04:21:30;;;;;;;50.40;43.83;;;;;;;;;;5040838;28;20494;-85
2023/05/11 04:23:57;;;;;;;54.20;48.57;;;;;;;;;;5041620;28;20449;-81
2023/05/11 04:26:25;;;;;;;51.07;45.70;;;;;;;;;;5041664;28;20509;-82
2023/05/11 04:28:52;;;;;;;58.13;44.57;;;;;;;;;;5039632;28;20486;-81
2023/05/11 04:31:19;;;;;;;54.00;48.37;;;;;;;;;;5038885;28;20457;-81
2023/05/11 04:33:46;;;;;;;55.53;47.97;;;;;;;;;;5040034;28;20425;-81
2023/05/11 04:36:13;;;;;;;51.97;44.27;;;;;;;;;;5038535;28;20469;-80
2023/05/11 04:38:41;;;;;;;52.57;46.87;;;;;;;;;;5038356;28;20434;-81
2023/05/11 04:41:09;;;;;;;53.67;45.30;;;;;;;;;;5038134;28;20484;-80
2023/05/11 04:43:36;;;;;;;52.80;46.50;;;;;;;;;;5038247;28;20903;-80
2023/05/11 04:46:03;;;;;;;48.33;42.83;;;;;;;;;;5036872;28;20431;-80
2023/05/11 04:48:30;;;;;;;52.63;46.77;;;;;;;;;;5036460;28;20422;-80
2023/05/11 04:50:57;;;;;;;54.43;45.10;;;;;;;;;;5036535;28;20871;-80
2023/05/11 04:53:24;;;;;;;56.73;44.00;;;;;;;;;;5037317;28;20509;-80
2023/05/11 04:55:53;;;;;;;49.87;44.47;;;;;;;;;;5036531;28;20462;-80
2023/05/11 04:58:19;;;;;;;50.70;43.40;;;;;;;;;;5037081;28;20495;-80
2023/05/11 05:00:46;;;;;;;48.40;43.60;;;;;;;;;;5036523;28;20456;-80
2023/05/11 05:03:13;;;;;;;59.03;47.87;;;;;;;;;;5037345;28;20463;-80
2023/05/11 05:05:41;;;;;;;50.50;45.40;;;;;;;;;;5036842;28;20920;-79
2023/05/11 05:08:08;;;;;;;47.70;42.80;;;;;;;;;;5037861;28;20455;-80
2023/05/11 05:10:35;;;;;;;50.47;45.37;;;;;;;;;;5038013;28;20826;-80
2023/05/11 05:13:03;;;;;;;53.10;47.40;;;;;;;;;;5037265;28;20461;-79
2023/05/11 05:15:30;;;;;;;49.37;44.40;;;;;;;;;;5041693;28;20449;-80
2023/05/11 05:17:57;;;;;;;50.17;45.50;;;;;;;;;;5039947;28;20439;-80
2023/05/11 05:20:24;;;;;;;48.83;44.13;;;;;;;;;;5037127;28;20475;-79
2023/05/11 05:22:51;;;;;;;51.93;46.77;;;;;;;;;;5037900;28;20601;-80
2023/05/11 05:25:18;;;;;;;53.20;46.83;;;;;;;;;;5037296;28;20506;-80
2023/05/11 05:27:45;;;;;;;53.97;48.30;;;;;;;;;;5037053;28;20419;-80
2023/05/11 05:30:14;;;;;;;52.07;46.80;;;;;;;;;;5036690;28;20918;-80
2023/05/11 05:32:41;;;;;;;52.27;47.33;;;;;;;;;;5037161;28;20434;-80
2023/05/11 05:35:08;;;;;;;54.07;48.57;;;;;;;;;;5037243;28;20439;-79
2023/05/11 05:37:36;;;;;;;50.60;45.57;;;;;;;;;;5037718;28;20452;-79
2023/05/11 05:40:04;;;;;;;55.07;49.27;;;;;;;;;;5037348;28;20471;-80
2023/05/11 05:42:31;;;;;;;51.77;46.60;;;;;;;;;;5036324;28;20454;-80
2023/05/11 05:44:58;;;;;;;53.07;47.90;;;;;;;;;;5036892;28;20434;-80
2023/05/11 05:47:27;;;;;;;50.70;45.70;;;;;;;;;;5036929;28;20455;-80
2023/05/11 05:49:54;;;;;;;48.87;44.17;;;;;;;;;;5037285;28;20461;-79
2023/05/11 05:52:21;;;;;;;51.57;46.43;;;;;;;;;;5040796;28;20523;-80
2023/05/11 05:54:48;;;;;;;50.00;45.33;;;;;;;;;;5040640;28;20442;-80
2023/05/11 05:57:15;;;;;;;47.43;42.87;;;;;;;;;;5039512;28;20422;-80
2023/05/11 05:59:42;;;;;;;50.20;45.40;;;;;;;;;;5040699;28;20591;-79
2023/05/11 06:02:10;;;;;;;50.90;45.60;;;;;;;;;;5040452;28;20701;-80
2023/05/11 06:04:39;;;;;;;49.23;44.50;;;;;;;;;;5045393;28;20454;-81
2023/05/11 06:07:06;;;;;;;49.27;44.30;;;;;;;;;;5042292;28;20449;-81
2023/05/11 06:09:33;;;;;;;47.97;43.50;;;;;;;;;;5041933;28;20441;-82
2023/05/11 06:12:00;;;;;;;50.30;45.40;;;;;;;;;;5042583;28;20447;-81
2023/05/11 06:14:27;;;;;;;48.77;44.23;;;;;;;;;;5039884;28;20463;-81
2023/05/11 06:16:54;;;;;;;48.20;43.50;;;;;;;;;;5034864;28;20442;-80
2023/05/11 06:19:21;;;;;;;51.70;46.80;;;;;;;;;;5037114;28;20474;-81
2023/05/11 06:21:49;;;;;;;48.23;43.47;;;;;;;;;;5037309;28;20490;-81
2023/05/11 06:24:17;;;;;;;46.90;42.37;;;;;;;;;;5037363;28;20494;-80
2023/05/11 06:26:44;;;;;;;51.17;46.40;;;;;;;;;;5036149;28;20454;-80
2023/05/11 06:29:11;;;;;;;50.50;45.40;;;;;;;;;;5038138;28;20485;-81
2023/05/11 06:31:38;;;;;;;49.47;44.10;;;;;;;;;;5038519;28;20483;-81
2023/05/11 06:34:05;;;;;;;50.83;45.40;;;;;;;;;;5025184;28;20415;-81
2023/05/11 06:36:32;;;;;;;49.87;45.00;;;;;;;;;;5028726;28;20799;-81
2023/05/11 06:39:00;;;;;;;46.53;41.90;;;;;;;;;;5031416;28;20472;-81
2023/05/11 06:41:27;;;;;;;49.67;44.97;;;;;;;;;;5029247;28;20410;-81
2023/05/11 06:43:54;;;;;;;49.23;44.40;;;;;;;;;;5039842;28;20793;-81
2023/05/11 06:46:21;;;;;;;48.53;43.73;;;;;;;;;;5035806;28;20472;-81
2023/05/11 06:48:49;;;;;;;48.10;43.30;;;;;;;;;;5036586;28;20456;-81
2023/05/11 06:51:16;;;;;;;50.03;45.23;;;;;;;;;;5035965;28;20505;-80
2023/05/11 06:53:43;;;;;;;48.93;44.23;;;;;;;;;;5036338;28;20425;-80
2023/05/11 06:56:11;;;;;;;50.27;45.27;;;;;;;;;;5035849;28;20426;-80
2023/05/11 06:58:38;;;;;;;49.33;44.23;;;;;;;;;;5036271;28;20501;-81
2023/05/11 07:01:06;;;;;;;50.53;45.33;;;;;;;;;;5035478;28;20467;-81
2023/05/11 07:03:33;;;;;;;50.63;45.37;;;;;;;;;;5035929;28;20463;-81
2023/05/11 07:06:00;;;;;;;50.40;45.33;;;;;;;;;;5038870;28;20958;-81
2023/05/11 07:08:27;;;;;;;49.70;45.10;;;;;;;;;;5042077;28;20914;-81
2023/05/11 07:10:55;;;;;;;50.93;45.97;;;;;;;;;;5042839;28;20506;-81
2023/05/11 07:13:23;;;;;;;51.30;46.33;;;;;;;;;;5041358;28;20517;-80
2023/05/11 07:15:50;;;;;;;50.77;45.67;;;;;;;;;;5035385;28;20535;-80
2023/05/11 07:18:18;;;;;;;50.07;45.47;;;;;;;;;;5038604;28;20565;-81
2023/05/11 07:20:48;;;;;;;54.63;49.17;;;;;;;;;;5035560;28;20475;-80
2023/05/11 07:23:15;;;;;;;53.40;48.07;;;;;;;;;;5036254;28;20418;-80
2023/05/11 07:25:42;;;;;;;55.13;49.40;;;;;;;;;;5035302;28;20789;-80
2023/05/11 07:28:09;;;;;;;56.27;50.60;;;;;;;;;;5036064;28;20451;-79
2023/05/11 07:30:38;;;;;;;52.90;47.60;;;;;;;;;;5036967;28;20865;-79
2023/05/11 07:33:05;;;;;;;54.20;48.67;;;;;;;;;;5038261;28;20439;-80
2023/05/11 07:35:32;;;;;;;54.10;48.67;;;;;;;;;;5039246;28;20475;-79
2023/05/11 07:37:59;;;;;;;53.87;48.93;;;;;;;;;;5039597;28;20494;-79
2023/05/11 07:40:26;;;;;;;56.30;48.67;;;;;;;;;;5040427;28;20479;-79
2023/05/11 07:42:53;;;;;;;60.10;53.53;;;;;;;;;;5044487;28;20467;-79
2023/05/11 07:45:20;;;;;;;56.20;50.10;;;;;;;;;;5047374;28;20407;-79
2023/05/11 07:47:48;;;;;;;56.57;50.60;;;;;;;;;;5046058;28;20422;-79
2023/05/11 07:50:16;;;;;;;56.13;50.40;;;;;;;;;;5046197;28;20487;-79
2023/05/11 07:52:43;;;;;;;55.47;49.47;;;;;;;;;;5045312;28;20525;-79
2023/05/11 07:55:10;;;;;;;56.03;49.97;;;;;;;;;;5045637;28;20447;-79
2023/05/11 07:57:37;;;;;;;51.37;46.27;;;;;;;;;;5045164;28;20442;-79
2023/05/11 08:00:06;;;;;;;54.87;48.90;;;;;;;;;;5044684;28;20476;-79
2023/05/11 08:02:33;;;;;;;54.90;49.57;;;;;;;;;;5045392;28;20416;-79
2023/05/11 08:05:01;;;;;;;54.00;48.80;;;;;;;;;;5041803;28;20483;-79
2023/05/11 08:07:29;;;;;;;56.03;50.33;;;;;;;;;;5044892;28;20467;-79
2023/05/11 08:09:56;;;;;;;55.57;49.97;;;;;;;;;;5051736;28;20554;-79
2023/05/11 08:12:23;;;;;;;55.17;49.70;;;;;;;;;;5052115;28;20464;-80
2023/05/11 08:14:50;;;;;;;53.97;48.30;;;;;;;;;;5046118;28;20448;-79
2023/05/11 08:17:17;;;;;;;53.40;48.57;;;;;;;;;;5046273;28;20451;-79
2023/05/11 08:19:44;;;;;;;52.30;47.23;;;;;;;;;;5048904;28;20945;-79
2023/05/11 08:22:13;;;;;;;53.20;47.87;;;;;;;;;;5045753;28;20855;-83
2023/05/11 08:24:40;;;;;;;53.73;48.53;;;;;;;;;;5048997;28;20448;-78
2023/05/11 08:27:08;;;;;;;56.07;49.80;;;;;;;;;;5046296;28;20459;-79
2023/05/11 08:29:35;;;;;;;58.40;52.30;;;;;;;;;;5042481;28;20450;-78
2023/05/11 08:32:02;;;;;;;52.83;47.83;;;;;;;;;;5046653;28;20487;-79
2023/05/11 08:34:29;;;;;;;57.77;51.67;;;;;;;;;;5043638;28;20426;-78
2023/05/11 08:36:58;;;;;;;53.03;47.63;;;;;;;;;;5044657;28;20982;-78
2023/05/11 08:39:27;;;;;;;56.93;50.90;;;;;;;;;;5043263;28;20514;-79
2023/05/11 08:41:55;;;;;;;51.87;47.00;;;;;;;;;;5052710;28;20427;-78
2023/05/11 08:44:23;;;;;;;52.73;47.43;;;;;;;;;;5056791;28;20422;-79
2023/05/11 08:46:53;;;;;;;54.70;49.43;;;;;;;;;;5056173;28;20443;-79
2023/05/11 08:49:21;;;;;;;54.93;49.60;;;;;;;;;;5047607;28;20474;-78
2023/05/11 08:51:48;;;;;;;53.33;48.30;;;;;;;;;;5047158;28;20480;-79
2023/05/11 08:54:15;;;;;;;51.27;46.57;;;;;;;;;;5046545;28;20455;-81
2023/05/11 08:56:46;;;;;;;50.23;45.60;;;;;;;;;;5045490;28;20419;-89
2023/05/11 08:59:22;;;;;;;48.23;43.60;;;;;;;;;;5044251;28;20464;-86
2023/05/11 09:01:51;;;;;;;49.83;45.17;;;;;;;;;;5050695;28;20509;-87
2023/05/11 09:04:18;;;;;;;49.07;44.10;;;;;;;;;;5041407;28;20799;-82
2023/05/11 09:06:45;;;;;;;44.30;39.97;;;;;;;;;;5040470;28;20451;-88
2023/05/11 09:09:13;;;;;;;49.63;44.77;;;;;;;;;;5041107;28;20502;-87
2023/05/11 09:11:41;;;;;;;46.37;41.97;;;;;;;;;;5042109;28;21050;-80
2023/05/11 09:14:10;;;;;;;45.83;41.57;;;;;;;;;;5045001;28;20426;-80
2023/05/11 09:16:37;;;;;;;46.03;42.03;;;;;;;;;;5045150;28;20457;-80
2023/05/11 09:19:05;;;;;;;48.13;43.60;;;;;;;;;;5039673;28;21229;-80
2023/05/11 09:21:33;;;;;;;46.43;42.13;;;;;;;;;;5041677;28;20450;-79
2023/05/11 09:24:00;;;;;;;45.67;41.53;;;;;;;;;;5041547;28;20490;-80
2023/05/11 09:26:28;;;;;;;44.27;40.27;;;;;;;;;;5039748;28;20447;-79
2023/05/11 09:28:57;;;;;;;43.80;40.10;;;;;;;;;;5041906;28;20527;-80
2023/05/11 09:31:39;;;;;;;42.63;38.87;;;;;;;;;;5038149;28;20454;-79
2023/05/11 09:34:13;;;;;;;39.20;36.10;;;;;;;;;;5038453;28;20414;-80
2023/05/11 09:36:40;;;;;;;39.37;36.10;;;;;;;;;;5037741;28;20501;-79
2023/05/11 09:39:08;;;;;;;39.93;36.53;;;;;;;;;;5039659;28;20455;-79
2023/05/11 09:41:35;;;;;;;40.50;36.87;;;;;;;;;;5036147;28;20398;-79
2023/05/11 09:44:07;;;;;;;38.73;35.63;;;;;;;;;;5036309;28;20430;-79
2023/05/11 09:46:34;;;;;;;41.07;37.40;;;;;;;;;;5035155;28;21054;-79
2023/05/11 09:49:03;;;;;;;41.33;37.80;;;;;;;;;;5035003;28;20990;-79
2023/05/11 09:51:30;;;;;;;37.37;34.30;;;;;;;;;;5035988;28;20487;-80
2023/05/11 09:53:59;;;;;;;39.73;36.70;;;;;;;;;;5035359;28;20537;-80
2023/05/11 09:56:41;;;;;;;41.70;38.00;;;;;;;;;;5040155;28;20783;-80
2023/05/11 09:59:08;;;;;;;42.80;39.20;;;;;;;;;;5038527;28;20494;-80
2023/05/11 10:01:36;;;;;;;44.10;40.40;;;;;;;;;;5036060;28;20426;-80
2023/05/11 10:04:07;;;;;;;48.90;44.17;;;;;;;;;;5041191;28;20455;-80
2023/05/11 10:06:44;;;;;;;49.77;45.67;;;;;;;;;;5040161;28;20437;-80
2023/05/11 10:09:11;;;;;;;49.57;45.80;;;;;;;;;;5037771;28;20529;-80
2023/05/11 10:11:39;;;;;;;53.30;48.77;;;;;;;;;;5038970;28;20485;-79
2023/05/11 10:14:08;;;;;;;60.23;55.13;;;;;;;;;;5038797;28;20769;-80
2023/05/11 10:16:35;;;;;;;91.30;84.03;;;;;;;;;;5038420;28;20976;-80
2023/05/11 10:19:04;;;;;;;98.47;90.57;;;;;;;;;;5036065;28;20533;-80
2023/05/11 10:21:31;;;;;;;93.83;87.87;;;;;;;;;;5036782;28;20472;-80
2023/05/11 10:23:58;;;;;;;90.50;85.27;;;;;;;;;;5038550;28;20436;-80
2023/05/11 10:26:25;;;;;;;94.33;88.23;;;;;;;;;;5036535;28;20429;-80
2023/05/11 10:28:53;;;;;;;97.87;90.93;;;;;;;;;;5035790;28;20479;-80
2023/05/11 10:31:22;;;;;;;90.70;84.70;;;;;;;;;;5035824;28;20916;-81
2023/05/11 10:33:51;;;;;;;92.33;86.73;;;;;;;;;;5036059;28;20478;-80
2023/05/11 10:36:20;;;;;;;90.43;85.53;;;;;;;;;;5033889;28;20415;-81
2023/05/11 10:38:47;;;;;;;86.50;81.50;;;;;;;;;;5034265;28;20543;-80
2023/05/11 10:41:22;;;;;;;85.30;80.57;;;;;;;;;;5033521;28;20502;-80
2023/05/11 10:43:55;;;;;;;82.80;78.10;;;;;;;;;;5034291;28;20453;-80
2023/05/11 10:46:30;;;;;;;78.67;74.10;;;;;;;;;;5034379;28;20418;-80
2023/05/11 10:49:11;;;;;;;75.97;71.43;;;;;;;;;;5034587;28;20458;-80
2023/05/11 10:51:47;;;;;;;75.73;70.83;;;;;;;;;;5040591;28;20462;-80
2023/05/11 10:54:24;;;;;;;70.10;65.50;;;;;;;;;;5036286;28;20455;-80
2023/05/11 10:56:59;;;;;;;68.40;64.00;;;;;;;;;;5037994;28;20459;-80
2023/05/11 10:59:32;;;;;;;67.03;61.83;;;;;;;;;;5035104;28;20864;-79
2023/05/11 11:02:00;;;;;;;62.03;56.57;;;;;;;;;;5038378;28;20968;-79
2023/05/11 11:04:41;;;;;;;55.90;51.90;;;;;;;;;;5038294;28;20455;-79
2023/05/11 11:07:10;;;;;;;56.33;51.13;;;;;;;;;;5039572;28;20446;-79
2023/05/11 11:09:55;;;;;;;52.60;48.70;;;;;;;;;;5038621;28;20506;-79
2023/05/11 11:12:23;;;;;;;58.10;53.50;;;;;;;;;;5046721;28;20446;-80
2023/05/11 11:14:57;;;;;;;63.73;58.50;;;;;;;;;;5046209;28;20624;-80
2023/05/11 11:17:26;;;;;;;58.40;54.10;;;;;;;;;;5043348;28;20710;-80
2023/05/11 11:19:53;;;;;;;55.77;51.47;;;;;;;;;;5043639;28;20525;-79
2023/05/11 11:22:40;;;;;;;58.07;53.57;;;;;;;;;;5041715;28;20497;-80
2023/05/11 11:25:09;;;;;;;60.63;55.43;;;;;;;;;;5041346;28;20478;-79
2023/05/11 11:27:54;;;;;;;60.33;55.83;;;;;;;;;;5039399;28;20986;-78
2023/05/11 11:30:22;;;;;;;54.40;50.60;;;;;;;;;;5032399;28;21473;-79
2023/05/11 11:32:50;;;;;;;57.67;53.73;;;;;;;;;;5041168;28;20482;-79
2023/05/11 11:35:36;;;;;;;59.67;55.10;;;;;;;;;;5042987;28;20502;-79
2023/05/11 11:38:04;;;;;;;44.43;41.30;;;;;;;;;;5040738;28;20462;-79
2023/05/11 11:40:37;;;;;;;43.50;40.00;;;;;;;;;;5039797;28;20978;-79
2023/05/11 11:43:11;;;;;;;41.03;37.43;;;;;;;;;;5040663;28;20916;-79
2023/05/11 11:45:38;;;;;;;40.27;37.23;;;;;;;;;;5037247;28;20500;-78
2023/05/11 11:48:10;;;;;;;39.27;36.40;;;;;;;;;;5037750;28;20432;-79
2023/05/11 11:50:37;;;;;;;37.33;34.40;;;;;;;;;;5037745;28;20486;-77
2023/05/11 11:53:04;;;;;;;32.47;29.90;;;;;;;;;;5037678;28;20465;-80
2023/05/11 11:55:51;;;;;;;33.67;30.63;;;;;;;;;;5037250;28;20467;-79
2023/05/11 11:58:33;;;;;;;35.53;32.73;;;;;;;;;;5037471;28;20843;-79
2023/05/11 12:01:00;;;;;;;35.23;32.57;;;;;;;;;;5036276;28;20509;-79
2023/05/11 12:03:27;;;;;;;34.07;31.33;;;;;;;;;;5042927;28;20434;-79
2023/05/11 12:05:58;;;;;;;34.70;31.83;;;;;;;;;;5041437;28;20407;-79
2023/05/11 12:08:26;;;;;;;34.83;31.97;;;;;;;;;;5040353;28;20459;-79
2023/05/11 12:10:55;;;;;;;35.20;32.70;;;;;;;;;;5039646;28;20490;-79
2023/05/11 12:13:23;;;;;;;33.67;30.77;;;;;;;;;;5044882;28;20479;-79
2023/05/11 12:15:50;;;;;;;35.27;32.53;;;;;;;;;;5041993;28;20464;-80
2023/05/11 12:18:21;;;;;;;35.30;32.40;;;;;;;;;;5045294;28;20504;-78
2023/05/11 12:20:48;;;;;;;34.47;31.80;;;;;;;;;;5043728;28;20529;-77
2023/05/11 12:23:15;;;;;;;35.47;31.90;;;;;;;;;;5043189;28;20776;-79
2023/05/11 12:25:42;;;;;;;31.93;29.73;;;;;;;;;;5044088;28;20455;-80
2023/05/11 12:28:11;;;;;;;29.50;27.40;;;;;;;;;;5044249;28;20582;-80
2023/05/11 12:30:38;;;;;;;27.60;25.70;;;;;;;;;;5041396;28;20458;-78
2023/05/11 12:33:08;;;;;;;29.30;26.80;;;;;;;;;;5040452;28;20543;-80
2023/05/11 12:35:37;;;;;;;24.73;23.23;;;;;;;;;;5040059;28;20478;-80
2023/05/11 12:38:04;;;;;;;26.37;24.40;;;;;;;;;;5041260;28;20426;-79
2023/05/11 12:40:32;;;;;;;26.27;24.37;;;;;;;;;;5041132;28;20446;-80
2023/05/11 12:42:59;;;;;;;25.70;24.17;;;;;;;;;;5040756;28;20426;-80
2023/05/11 12:45:28;;;;;;;26.10;24.40;;;;;;;;;;5040966;28;20461;-79
2023/05/11 12:47:55;;;;;;;26.03;24.13;;;;;;;;;;5039769;28;20448;-80
2023/05/11 12:50:23;;;;;;;27.13;25.33;;;;;;;;;;5040955;28;20932;-80
2023/05/11 12:52:51;;;;;;;25.30;23.67;;;;;;;;;;5040071;28;20545;-80
2023/05/11 12:55:27;;;;;;;24.73;23.03;;;;;;;;;;5041172;28;20862;-80
2023/05/11 12:58:07;;;;;;;25.67;23.87;;;;;;;;;;5040346;28;20824;-84
2023/05/11 13:00:35;;;;;;;23.50;21.90;;;;;;;;;;5040644;28;20465;-80
2023/05/11 13:03:03;;;;;;;24.40;22.90;;;;;;;;;;5040447;28;20431;-79
2023/05/11 13:05:30;;;;;;;25.50;23.60;;;;;;;;;;5040338;28;20498;-79
2023/05/11 13:07:58;;;;;;;24.87;23.20;;;;;;;;;;5041646;28;20452;-79
2023/05/11 13:10:25;;;;;;;23.50;22.10;;;;;;;;;;5041161;28;20478;-79
2023/05/11 13:12:53;;;;;;;23.90;22.40;;;;;;;;;;5040610;28;20446;-81
2023/05/11 13:15:20;;;;;;;24.83;23.23;;;;;;;;;;5042227;28;20434;-80
2023/05/11 13:17:55;;;;;;;25.10;23.50;;;;;;;;;;5040125;28;20456;-80
2023/05/11 13:20:25;;;;;;;24.90;23.00;;;;;;;;;;5041701;28;20506;-79
2023/05/11 13:22:52;;;;;;;25.73;23.97;;;;;;;;;;5040707;28;20501;-79
2023/05/11 13:25:20;;;;;;;24.37;22.60;;;;;;;;;;5039623;28;20525;-79
2023/05/11 13:27:47;;;;;;;24.90;23.20;;;;;;;;;;5039540;28;20834;-80
2023/05/11 13:30:14;;;;;;;24.50;22.70;;;;;;;;;;5039849;28;20500;-79
2023/05/11 13:32:41;;;;;;;24.37;22.80;;;;;;;;;;5038797;28;20476;-80
2023/05/11 13:35:10;;;;;;;25.57;23.87;;;;;;;;;;5043688;28;20452;-79
2023/05/11 13:37:37;;;;;;;23.67;22.07;;;;;;;;;;5052071;28;20417;-89
2023/05/11 13:40:05;;;;;;;23.00;21.40;;;;;;;;;;5050791;28;20479;-80
2023/05/11 13:42:32;;;;;;;24.23;22.53;;;;;;;;;;5046828;28;20449;-80
2023/05/11 13:44:59;;;;;;;24.63;22.93;;;;;;;;;;5041716;28;20415;-81
2023/05/11 13:47:26;;;;;;;25.47;23.80;;;;;;;;;;5040622;28;20467;-81
2023/05/11 13:49:54;;;;;;;23.97;22.47;;;;;;;;;;5042122;28;20465;-81
2023/05/11 13:52:22;;;;;;;24.10;22.60;;;;;;;;;;5041003;28;20562;-80
2023/05/11 13:54:52;;;;;;;25.93;24.13;;;;;;;;;;5042046;28;20443;-80
2023/05/11 13:57:19;;;;;;;24.80;23.10;;;;;;;;;;5040066;28;20505;-79
2023/05/11 13:59:46;;;;;;;26.60;24.73;;;;;;;;;;5039913;28;20481;-81
2023/05/11 14:02:13;;;;;;;26.90;25.10;;;;;;;;;;5041211;28;21018;-81
2023/05/11 14:04:40;;;;;;;27.53;25.63;;;;;;;;;;5041862;28;20861;-79
2023/05/11 14:07:07;;;;;;;28.17;26.23;;;;;;;;;;5041370;28;20406;-80
2023/05/11 14:09:36;;;;;;;28.60;26.40;;;;;;;;;;5041232;28;20487;-80
2023/05/11 14:12:03;;;;;;;28.03;26.13;;;;;;;;;;5041295;28;20521;-80
2023/05/11 14:14:30;;;;;;;27.43;25.40;;;;;;;;;;5040490;28;20521;-79
2023/05/11 14:16:57;;;;;;;28.93;26.80;;;;;;;;;;5040390;28;20422;-80
2023/05/11 14:19:24;;;;;;;28.40;26.20;;;;;;;;;;5037555;28;20958;-80
2023/05/11 14:21:52;;;;;;;26.83;24.87;;;;;;;;;;5042622;28;20910;-87
2023/05/11 14:24:19;;;;;;;31.60;28.50;;;;;;;;;;5043496;28;20465;-86